Time;durP1;ratioP1;P1;durP2;ratioP2;P2;SDS_P1;SDS_P2;PMS_P1;PMS_P2;Temp;Humidity;BMP_temperature;BMP_pressure;BME280_temperature;BME280_humidity;BME280_pressure;Samples;Min_cycle;Max_cycle;Signal;HPM_P1;HPM_P2
2022/05/11 00:01:32;;;;;;;;;;;;;;;15.51;64.67;96621.91;4889705;29;19958;-69
2022/05/11 00:03:59;;;;;;;;;;;;;;;15.48;65.10;96618.97;4894104;29;19959;-69
2022/05/11 00:06:26;;;;;;;;;;;;;;;15.46;64.96;96615.78;4894021;29;19964;-69
2022/05/11 00:08:56;;;;;;;;;;;;;;;15.41;65.04;96604.09;4886323;29;19963;-69
2022/05/11 00:11:22;;;;;;;;;;;;;;;15.39;65.21;96613.28;4889389;29;20329;-69
2022/05/11 00:13:48;;;;;;;;;;;;;;;15.36;65.05;96603.22;4889174;29;19966;-69
2022/05/11 00:16:14;;;;;;;;;;;;;;;15.34;65.44;96606.09;4890533;29;19986;-68
2022/05/11 00:18:40;;;;;;;;;;;;;;;15.32;65.74;96599.47;4892163;29;19966;-69
2022/05/11 00:21:06;;;;;;;;;;;;;;;15.29;65.57;96600.75;4881757;29;19990;-68
2022/05/11 00:23:33;;;;;;;;;;;;;;;15.25;65.91;96594.38;4880294;29;19962;-68
2022/05/11 00:26:04;;;;;;;;;;;;;;;15.22;65.81;96595.66;4880406;29;20483;-68
2022/05/11 00:28:30;;;;;;;;;;;;;;;15.19;66.13;96592.69;4879279;29;19963;-69
2022/05/11 00:30:56;;;;;;;;;;;;;;;15.17;66.12;96600.84;4880578;29;19968;-69
2022/05/11 00:33:22;;;;;;;;;;;;;;;15.15;66.21;96592.38;4880615;29;19965;-69
2022/05/11 00:35:49;;;;;;;;;;;;;;;15.12;66.37;96595.50;4880128;29;19978;-69
2022/05/11 00:38:16;;;;;;;;;;;;;;;15.09;66.54;96593.34;4880273;29;20435;-69
2022/05/11 00:40:44;;;;;;;;;;;;;;;15.09;66.58;96595.19;4879604;29;19959;-68
2022/05/11 00:43:10;;;;;;;;;;;;;;;15.05;66.61;96592.22;4879891;29;20417;-69
2022/05/11 00:45:59;;;;;;;;;;;;;;;15.03;66.87;96586.38;4879901;29;19960;-69
2022/05/11 00:51:13;;;;;;;;;;;;;;;14.96;66.92;96583.13;4879854;29;19982;-69
2022/05/11 00:53:40;;;;;;;;;;;;;;;14.92;67.01;96579.38;4879889;29;19964;-69
2022/05/11 00:56:06;;;;;;;;;;;;;;;14.90;67.14;96578.81;4879392;29;19972;-69
2022/05/11 00:58:51;;;;;;;;;;;;;;;14.86;67.20;96577.69;4879819;29;20469;-69
2022/05/11 01:01:17;;;;;;;;;;;;;;;14.82;67.21;96572.91;4867064;29;19966;-69
2022/05/11 01:03:51;;;;;;;;;;;;;;;14.80;67.16;96575.00;4879712;29;19989;-70
2022/05/11 01:06:18;;;;;;;;;;;;;;;14.76;67.30;96568.59;4879876;29;20616;-71
2022/05/11 01:08:44;;;;;;;;;;;;;;;14.73;67.16;96570.91;4879934;29;19970;-73
2022/05/11 01:11:10;;;;;;;;;;;;;;;14.72;67.32;96572.75;4883698;29;20379;-72
2022/05/11 01:13:41;;;;;;;;;;;;;;;14.72;67.39;96575.38;4883138;29;20317;-69
2022/05/11 01:16:07;;;;;;;;;;;;;;;14.71;67.87;96583.53;4875485;29;20448;-69
2022/05/11 01:18:33;;;;;;;;;;;;;;;14.70;67.55;96580.09;4883433;29;20448;-69
2022/05/11 01:21:02;;;;;;;;;;;;;;;14.68;67.52;96576.91;4883777;29;20335;-69
2022/05/11 01:23:28;;;;;;;;;;;;;;;14.66;67.38;96575.53;4883289;29;19959;-69
2022/05/11 01:25:54;;;;;;;;;;;;;;;14.63;67.54;96583.94;4883208;29;19998;-69
2022/05/11 01:28:20;;;;;;;;;;;;;;;14.59;67.74;96586.25;4883218;29;19961;-69
2022/05/11 01:30:51;;;;;;;;;;;;;;;14.54;67.85;96579.03;4883288;29;20465;-70
2022/05/11 01:33:18;;;;;;;;;;;;;;;14.51;67.92;96582.16;4883306;29;19951;-69
2022/05/11 01:35:47;;;;;;;;;;;;;;;14.49;68.12;96575.50;4882994;29;19981;-69
2022/05/11 01:38:37;;;;;;;;;;;;;;;14.46;68.24;96579.41;4883308;29;20431;-69
2022/05/11 01:41:03;;;;;;;;;;;;;;;14.43;68.13;96576.47;4882881;29;19964;-69
2022/05/11 01:43:31;;;;;;;;;;;;;;;14.41;68.48;96574.88;4882777;29;20469;-70
2022/05/11 01:45:57;;;;;;;;;;;;;;;14.41;68.56;96576.72;4874092;29;19952;-69
2022/05/11 01:48:23;;;;;;;;;;;;;;;14.39;68.67;96579.56;4882552;29;20335;-69
2022/05/11 01:50:49;;;;;;;;;;;;;;;14.39;69.06;96576.16;4883109;29;19972;-69
2022/05/11 01:53:18;;;;;;;;;;;;;;;14.37;69.32;96581.66;4882579;29;19964;-69
2022/05/11 01:55:44;;;;;;;;;;;;;;;14.37;69.15;96576.38;4882582;29;19979;-70
2022/05/11 01:58:11;;;;;;;;;;;;;;;14.36;68.71;96573.97;4882590;29;19960;-69
2022/05/11 02:00:38;;;;;;;;;;;;;;;14.35;68.82;96569.75;4882719;29;20344;-69
2022/05/11 02:03:05;;;;;;;;;;;;;;;14.33;69.14;96580.53;4882468;29;19959;-69
2022/05/11 02:08:15;;;;;;;;;;;;;;;14.28;69.62;96583.09;4882522;29;19968;-70
2022/05/11 02:10:41;;;;;;;;;;;;;;;14.27;69.69;96564.84;4882449;29;19957;-69
2022/05/11 02:13:07;;;;;;;;;;;;;;;14.24;69.46;96567.97;4882627;29;19989;-70
2022/05/11 02:15:34;;;;;;;;;;;;;;;14.24;69.45;96566.13;4882285;29;20315;-69
2022/05/11 02:18:00;;;;;;;;;;;;;;;14.23;69.56;96572.44;4882461;29;19964;-69
2022/05/11 02:20:26;;;;;;;;;;;;;;;14.23;69.77;96569.00;4881886;29;20065;-69
2022/05/11 02:22:52;;;;;;;;;;;;;;;14.20;69.53;96573.72;4882302;29;20389;-69
2022/05/11 02:25:18;;;;;;;;;;;;;;;14.23;69.95;96574.28;4883629;29;19968;-69
2022/05/11 02:27:45;;;;;;;;;;;;;;;14.22;69.63;96568.22;4882524;29;20033;-69
2022/05/11 02:30:13;;;;;;;;;;;;;;;14.19;69.23;96571.31;4882220;29;19969;-69
2022/05/11 02:32:39;;;;;;;;;;;;;;;14.18;69.64;96565.25;4882522;29;19959;-69
2022/05/11 02:35:16;;;;;;;;;;;;;;;14.18;69.85;96567.88;4882097;29;20033;-69
2022/05/11 02:37:45;;;;;;;;;;;;;;;14.17;69.55;96562.84;4872373;29;20355;-70
2022/05/11 02:40:12;;;;;;;;;;;;;;;14.18;69.57;96561.81;4882089;29;19960;-70
2022/05/11 02:42:38;;;;;;;;;;;;;;;14.16;69.62;96559.41;4885512;29;20417;-69
2022/05/11 02:45:05;;;;;;;;;;;;;;;14.16;69.71;96561.25;4882123;29;19970;-68
2022/05/11 02:47:31;;;;;;;;;;;;;;;14.16;69.67;96567.31;4881878;29;19967;-68
2022/05/11 02:49:57;;;;;;;;;;;;;;;14.14;69.95;96564.13;4882031;29;19967;-69
2022/05/11 02:52:23;;;;;;;;;;;;;;;14.13;70.02;96575.72;4881826;29;19976;-69
2022/05/11 02:54:49;;;;;;;;;;;;;;;14.12;70.37;96571.47;4881792;29;19957;-69
2022/05/11 02:57:16;;;;;;;;;;;;;;;14.11;70.63;96571.69;4881865;29;19965;-70
2022/05/11 02:59:43;;;;;;;;;;;;;;;14.10;70.64;96572.75;4881868;29;19959;-69
2022/05/11 03:02:09;;;;;;;;;;;;;;;14.08;70.41;96570.34;4881587;29;19962;-69
2022/05/11 03:04:35;;;;;;;;;;;;;;;14.07;70.46;96576.66;4881762;29;19956;-69
2022/05/11 03:07:01;;;;;;;;;;;;;;;14.05;70.22;96562.09;4881527;29;19981;-69
2022/05/11 03:09:27;;;;;;;;;;;;;;;14.04;70.48;96571.06;4881453;29;20014;-69
2022/05/11 03:11:53;;;;;;;;;;;;;;;14.02;70.20;96568.63;4881720;29;19991;-69
2022/05/11 03:14:19;;;;;;;;;;;;;;;14.00;70.38;96571.50;4881479;29;19962;-69
2022/05/11 03:16:45;;;;;;;;;;;;;;;13.98;70.20;96567.50;4881465;29;20021;-69
2022/05/11 03:19:11;;;;;;;;;;;;;;;13.97;70.74;96574.63;4881505;29;19964;-69
2022/05/11 03:21:37;;;;;;;;;;;;;;;13.96;70.53;96569.59;4890112;29;20075;-69
2022/05/11 03:24:03;;;;;;;;;;;;;;;13.95;71.17;96576.69;4895438;29;19968;-70
2022/05/11 03:26:29;;;;;;;;;;;;;;;13.93;70.36;96575.34;4886010;29;20431;-69
2022/05/11 03:28:56;;;;;;;;;;;;;;;13.90;70.40;96573.97;4889944;29;19974;-69
2022/05/11 03:31:22;;;;;;;;;;;;;;;13.89;69.97;96566.31;4886641;29;20324;-69
2022/05/11 03:36:32;;;;;;;;;;;;;;;13.85;70.66;96567.81;4894978;29;19984;-69
2022/05/11 03:38:58;;;;;;;;;;;;;;;13.84;70.43;96561.75;4889594;29;20325;-69
2022/05/11 03:41:24;;;;;;;;;;;;;;;13.81;70.53;96565.63;4887068;29;19977;-69
2022/05/11 03:43:50;;;;;;;;;;;;;;;13.81;71.24;96565.63;4896523;29;20015;-70
2022/05/11 03:46:16;;;;;;;;;;;;;;;13.78;70.90;96563.47;4889564;29;20027;-70
2022/05/11 03:48:42;;;;;;;;;;;;;;;13.78;70.66;96560.03;4889709;29;19969;-70
2022/05/11 03:51:08;;;;;;;;;;;;;;;13.77;71.06;96563.69;4886028;29;20062;-70
2022/05/11 03:53:35;;;;;;;;;;;;;;;13.76;71.23;96562.13;4896555;29;20373;-70
2022/05/11 03:56:01;;;;;;;;;;;;;;;13.74;71.02;96554.44;4886709;29;19972;-70
2022/05/11 03:58:27;;;;;;;;;;;;;;;13.73;71.56;96552.03;4886525;29;19969;-69
2022/05/11 04:00:54;;;;;;;;;;;;;;;13.71;71.47;96559.38;4891942;29;19960;-69
2022/05/11 04:03:20;;;;;;;;;;;;;;;13.69;71.51;96561.44;4891464;29;19953;-69
2022/05/11 04:05:46;;;;;;;;;;;;;;;13.65;71.10;96560.31;4890204;29;20325;-69
2022/05/11 04:08:11;;;;;;;;;;;;;;;13.61;71.63;96560.00;4893186;29;20387;-69
2022/05/11 04:10:37;;;;;;;;;;;;;;;13.57;71.12;96564.13;4883737;29;20369;-69
2022/05/11 04:13:04;;;;;;;;;;;;;;;13.53;71.04;96555.09;4893941;29;19968;-69
2022/05/11 04:15:30;;;;;;;;;;;;;;;13.49;70.94;96560.00;4891178;29;19971;-69
2022/05/11 04:17:56;;;;;;;;;;;;;;;13.47;71.04;96559.44;4884851;29;19955;-69
2022/05/11 04:20:22;;;;;;;;;;;;;;;13.46;71.05;96557.84;4886542;29;20069;-69
2022/05/11 04:22:48;;;;;;;;;;;;;;;13.45;71.16;96561.50;4879935;29;19955;-69
2022/05/11 04:25:16;;;;;;;;;;;;;;;13.46;71.33;96559.66;4880580;29;19968;-69
2022/05/11 04:27:45;;;;;;;;;;;;;;;13.45;71.81;96556.25;4880181;29;19962;-69
2022/05/11 04:30:15;;;;;;;;;;;;;;;13.46;71.42;96557.03;4880187;29;19973;-69
2022/05/11 04:32:41;;;;;;;;;;;;;;;13.45;71.61;96556.25;4879999;29;19955;-69
2022/05/11 04:35:08;;;;;;;;;;;;;;;13.46;71.87;96559.66;4880574;29;19968;-69
2022/05/11 04:37:34;;;;;;;;;;;;;;;13.47;71.63;96567.34;4879565;29;20323;-69
2022/05/11 04:40:18;;;;;;;;;;;;;;;13.48;71.96;96566.31;4880412;29;19957;-69
2022/05/11 04:42:44;;;;;;;;;;;;;;;13.49;71.94;96561.84;4880001;29;19959;-69
2022/05/11 04:45:10;;;;;;;;;;;;;;;13.51;71.73;96570.31;4880033;29;19967;-69
2022/05/11 04:47:36;;;;;;;;;;;;;;;13.53;71.94;96568.25;4880022;29;19963;-69
2022/05/11 04:50:02;;;;;;;;;;;;;;;13.57;71.92;96569.41;4880052;29;20297;-69
2022/05/11 04:52:28;;;;;;;;;;;;;;;13.62;71.54;96569.47;4879815;29;20430;-69
2022/05/11 04:54:54;;;;;;;;;;;;;;;13.76;71.40;96573.44;4880009;29;19964;-69
2022/05/11 04:57:20;;;;;;;;;;;;;;;13.93;71.69;96564.78;4879847;29;19996;-69
2022/05/11 04:59:46;;;;;;;;;;;;;;;14.11;70.84;96558.50;4879685;29;19977;-70
2022/05/11 05:02:14;;;;;;;;;;;;;;;14.37;70.93;96557.91;4880020;29;19963;-69
2022/05/11 05:04:40;;;;;;;;;;;;;;;14.69;70.52;96560.03;4880067;29;20323;-69
2022/05/11 05:07:09;;;;;;;;;;;;;;;15.02;69.74;96551.25;4879940;29;19975;-69
2022/05/11 05:09:34;;;;;;;;;;;;;;;15.41;68.27;96539.84;4879599;29;19988;-69
2022/05/11 05:12:01;;;;;;;;;;;;;;;15.77;66.89;96537.63;4879735;29;20055;-69
2022/05/11 05:14:27;;;;;;;;;;;;;;;16.11;66.45;96545.41;4879560;29;19983;-69
2022/05/11 05:16:58;;;;;;;;;;;;;;;16.45;64.60;96522.13;4879510;29;20012;-70
2022/05/11 05:19:24;;;;;;;;;;;;;;;16.78;63.97;96518.41;4880033;29;19965;-69
2022/05/11 05:21:50;;;;;;;;;;;;;;;17.18;63.29;96519.69;4880436;29;20033;-70
2022/05/11 05:24:16;;;;;;;;;;;;;;;17.44;62.78;96509.19;4890576;29;20163;-70
2022/05/11 05:26:42;;;;;;;;;;;;;;;17.70;61.79;96501.31;4890194;29;19973;-69
2022/05/11 05:31:52;;;;;;;;;;;;;;;18.26;60.33;96499.56;4887311;29;19961;-69
2022/05/11 05:34:18;;;;;;;;;;;;;;;18.49;59.62;96494.78;4885905;29;20073;-69
2022/05/11 05:36:44;;;;;;;;;;;;;;;18.81;59.00;96485.72;4888400;29;19977;-70
2022/05/11 05:39:10;;;;;;;;;;;;;;;19.08;57.63;96477.41;4887362;29;19965;-69
2022/05/11 05:41:36;;;;;;;;;;;;;;;19.27;57.27;96474.94;4893238;29;20490;-69
2022/05/11 05:44:02;;;;;;;;;;;;;;;19.50;57.06;96473.50;4890359;29;19964;-69
2022/05/11 05:46:27;;;;;;;;;;;;;;;19.72;56.22;96465.16;4884172;29;20044;-69
2022/05/11 05:48:53;;;;;;;;;;;;;;;19.92;53.78;96440.28;4893235;29;19958;-69
2022/05/11 05:51:20;;;;;;;;;;;;;;;20.08;56.06;96464.91;4888016;29;19969;-70
2022/05/11 05:53:45;;;;;;;;;;;;;;;20.26;55.31;96466.91;4886729;29;20330;-69
2022/05/11 05:56:12;;;;;;;;;;;;;;;20.47;55.35;96459.53;4886620;29;19981;-69
2022/05/11 05:58:39;;;;;;;;;;;;;;;20.76;54.16;96445.41;4896404;29;19963;-70
2022/05/11 06:01:05;;;;;;;;;;;;;;;20.81;53.68;96447.22;4896945;29;19959;-69
2022/05/11 06:03:32;;;;;;;;;;;;;;;20.71;52.85;96434.81;4891195;29;19963;-69
2022/05/11 06:05:58;;;;;;;;;;;;;;;20.61;52.78;96434.91;4891720;29;19963;-69
2022/05/11 06:08:24;;;;;;;;;;;;;;;20.48;53.01;96442.47;4890434;29;20055;-70
2022/05/11 06:10:52;;;;;;;;;;;;;;;20.46;54.32;96452.59;4888774;29;20340;-69
2022/05/11 06:13:22;;;;;;;;;;;;;;;20.45;53.78;96448.38;4897573;29;19968;-70
2022/05/11 06:15:49;;;;;;;;;;;;;;;20.53;53.66;96459.47;4891069;29;19975;-70
2022/05/11 06:18:15;;;;;;;;;;;;;;;20.70;52.43;96435.09;4890502;29;20346;-70
2022/05/11 06:20:41;;;;;;;;;;;;;;;20.67;53.28;96447.09;4890551;29;19993;-69
2022/05/11 06:23:07;;;;;;;;;;;;;;;20.75;52.96;96451.81;4882317;29;20426;-70
2022/05/11 06:25:34;;;;;;;;;;;;;;;20.94;53.67;96453.75;4882609;29;19970;-69
2022/05/11 06:28:00;;;;;;;;;;;;;;;20.88;52.87;96453.81;4882386;29;19961;-70
2022/05/11 06:30:27;;;;;;;;;;;;;;;20.84;52.89;96444.78;4882381;29;19963;-69
2022/05/11 06:32:53;;;;;;;;;;;;;;;20.74;53.14;96452.09;4882118;29;19959;-70
2022/05/11 06:35:19;;;;;;;;;;;;;;;20.70;53.67;96456.41;4882133;29;19964;-69
2022/05/11 06:37:45;;;;;;;;;;;;;;;20.75;53.38;96454.50;4882187;29;19982;-69
2022/05/11 06:40:12;;;;;;;;;;;;;;;20.95;53.44;96453.44;4882222;29;19964;-70
2022/05/11 06:42:38;;;;;;;;;;;;;;;21.11;53.11;96437.31;4882149;29;19961;-69
2022/05/11 06:45:05;;;;;;;;;;;;;;;21.23;52.89;96445.66;4882049;29;19961;-69
2022/05/11 06:47:32;;;;;;;;;;;;;;;21.34;52.72;96441.00;4882081;29;20418;-70
2022/05/11 06:49:57;;;;;;;;;;;;;;;21.35;51.41;96426.56;4882055;29;19969;-69
2022/05/11 06:52:23;;;;;;;;;;;;;;;21.34;52.37;96439.13;4881886;29;19968;-70
2022/05/11 07:00:22;;;;;;;;;;;;;;;21.63;51.37;96423.00;4881569;29;19951;-69
2022/05/11 07:02:48;;;;;;;;;;;;;;;21.73;51.70;96432.72;4882118;29;20484;-69
2022/05/11 07:05:14;;;;;;;;;;;;;;;21.73;51.69;96431.94;4881882;29;20413;-70
2022/05/11 07:07:40;;;;;;;;;;;;;;;21.77;52.12;96431.06;4881374;29;20005;-69
2022/05/11 07:10:07;;;;;;;;;;;;;;;21.94;52.11;96427.88;4881061;29;19970;-69
2022/05/11 07:12:35;;;;;;;;;;;;;;;22.04;51.20;96414.38;4881416;29;19961;-70
2022/05/11 07:15:02;;;;;;;;;;;;;;;21.91;51.56;96425.78;4881572;29;19970;-69
2022/05/11 07:17:33;;;;;;;;;;;;;;;21.84;51.12;96425.38;4881596;29;19986;-70
2022/05/11 07:20:01;;;;;;;;;;;;;;;21.75;52.43;96446.59;4881683;29;19965;-69
2022/05/11 07:22:27;;;;;;;;;;;;;;;21.85;51.28;96438.44;4881594;29;20339;-70
2022/05/11 07:24:53;;;;;;;;;;;;;;;21.82;52.09;96446.25;4881522;29;19987;-70
2022/05/11 07:27:19;;;;;;;;;;;;;;;21.82;51.58;96433.69;4881668;29;19967;-69
2022/05/11 07:29:45;;;;;;;;;;;;;;;22.00;51.70;96436.59;4881235;29;19952;-70
2022/05/11 07:32:11;;;;;;;;;;;;;;;22.04;51.12;96432.28;4881107;29;20001;-70
2022/05/11 07:34:38;;;;;;;;;;;;;;;22.15;52.11;96438.22;4881130;29;19965;-70
2022/05/11 07:37:04;;;;;;;;;;;;;;;22.19;50.59;96428.56;4880718;29;19973;-70
2022/05/11 07:39:30;;;;;;;;;;;;;;;22.33;50.73;96433.97;4880856;29;19970;-70
2022/05/11 07:41:56;;;;;;;;;;;;;;;22.22;50.28;96425.31;4880767;29;20095;-70
2022/05/11 07:44:22;;;;;;;;;;;;;;;22.31;51.15;96436.94;4880874;29;20010;-70
2022/05/11 07:46:48;;;;;;;;;;;;;;;22.50;51.17;96437.66;4880729;29;20019;-70
2022/05/11 07:49:16;;;;;;;;;;;;;;;22.63;50.49;96421.94;4880914;29;19969;-70
2022/05/11 07:51:43;;;;;;;;;;;;;;;22.74;50.00;96417.19;4880956;29;20417;-70
2022/05/11 07:54:09;;;;;;;;;;;;;;;22.92;50.44;96428.88;4880311;29;19959;-70
2022/05/11 08:02:03;;;;;;;;;;;;;;;22.82;49.02;96414.59;4880578;29;19957;-70
2022/05/11 08:04:29;;;;;;;;;;;;;;;22.65;48.74;96412.53;4880864;29;20484;-71
2022/05/11 08:06:55;;;;;;;;;;;;;;;22.60;49.53;96417.97;4880745;29;19956;-70
2022/05/11 08:09:21;;;;;;;;;;;;;;;22.44;49.32;96417.44;4880483;29;19964;-70
2022/05/11 08:11:47;;;;;;;;;;;;;;;22.43;49.03;96415.88;4880517;29;20417;-70
2022/05/11 08:14:14;;;;;;;;;;;;;;;22.41;48.91;96409.25;4880806;29;19969;-70
2022/05/11 08:16:41;;;;;;;;;;;;;;;22.49;49.09;96417.38;4880640;29;19974;-70
2022/05/11 08:19:07;;;;;;;;;;;;;;;22.63;48.89;96412.03;4879676;29;19972;-71
2022/05/11 08:21:34;;;;;;;;;;;;;;;22.91;48.27;96401.34;4880428;29;19987;-70
2022/05/11 08:24:00;;;;;;;;;;;;;;;23.12;47.54;96391.06;4869266;29;19966;-70
2022/05/11 08:26:26;;;;;;;;;;;;;;;23.20;48.08;96402.91;4880299;29;19969;-71
2022/05/11 08:28:53;;;;;;;;;;;;;;;23.19;47.22;96393.31;4880410;29;19975;-70
2022/05/11 08:34:03;;;;;;;;;;;;;;;23.39;47.86;96414.31;4880726;29;19960;-70
2022/05/11 08:36:29;;;;;;;;;;;;;;;23.33;45.51;96398.63;4880338;29;19978;-70
2022/05/11 08:38:56;;;;;;;;;;;;;;;23.44;46.74;96416.84;4880016;29;19958;-70
2022/05/11 08:41:32;;;;;;;;;;;;;;;23.59;45.97;96417.59;4888366;29;20322;-70
2022/05/11 08:44:00;;;;;;;;;;;;;;;23.61;45.31;96418.88;4880279;29;19962;-70
2022/05/11 08:46:52;;;;;;;;;;;;;;;23.66;47.14;96450.09;4880020;29;19960;-70
2022/05/11 08:49:18;;;;;;;;;;;;;;;23.73;46.13;96437.09;4864626;29;19965;-72
2022/05/11 08:51:51;;;;;;;;;;;;;;;23.82;45.50;96424.59;4879994;29;20047;-70
2022/05/11 08:54:23;;;;;;;;;;;;;;;23.92;44.84;96431.59;4880039;29;19965;-71
2022/05/11 08:56:49;;;;;;;;;;;;;;;24.03;44.29;96427.59;4879968;29;19969;-70
2022/05/11 08:59:31;;;;;;;;;;;;;;;24.17;44.81;96435.56;4879899;29;19951;-70
2022/05/11 09:01:57;;;;;;;;;;;;;;;24.31;42.50;96425.53;4879831;29;20321;-70
2022/05/11 09:04:27;;;;;;;;;;;;;;;24.47;42.52;96435.88;4879856;29;19954;-71
2022/05/11 09:06:53;;;;;;;;;;;;;;;24.59;42.84;96421.91;4880194;29;19963;-70
2022/05/11 09:09:19;;;;;;;;;;;;;;;24.68;42.46;96418.19;4879944;29;19966;-70
2022/05/11 09:11:52;;;;;;;;;;;;;;;24.63;43.04;96438.97;4879685;29;19968;-70
2022/05/11 09:14:33;;;;;;;;;;;;;;;24.71;43.38;96432.88;4880258;29;19961;-70
2022/05/11 09:16:59;;;;;;;;;;;;;;;24.77;42.98;96426.25;4879531;29;19976;-70
2022/05/11 09:19:28;;;;;;;;;;;;;;;24.85;42.29;96425.50;4879659;29;20394;-70
2022/05/11 09:21:56;;;;;;;;;;;;;;;24.94;42.45;96428.22;4886339;29;19975;-70
2022/05/11 09:24:31;;;;;;;;;;;;;;;25.10;43.63;96428.59;4888513;29;20365;-70
2022/05/11 09:27:05;;;;;;;;;;;;;;;25.23;42.29;96414.28;4891832;29;19974;-70
2022/05/11 09:29:34;;;;;;;;;;;;;;;25.36;41.43;96407.19;4888265;29;19959;-70
2022/05/11 09:32:19;;;;;;;;;;;;;;;25.54;41.00;96399.94;4888100;29;19960;-71
2022/05/11 09:34:45;;;;;;;;;;;;;;;25.67;41.18;96408.94;4893569;29;19954;-70
2022/05/11 09:37:28;;;;;;;;;;;;;;;25.82;40.32;96394.25;4889715;29;19976;-70
2022/05/11 09:40:30;;;;;;;;;;;;;;;25.96;39.97;96399.47;4890040;29;19958;-70
2022/05/11 09:42:59;;;;;;;;;;;;;;;26.06;37.91;96393.75;4825935;29;20331;-70
2022/05/11 09:45:34;;;;;;;;;;;;;;;26.06;39.29;96412.56;4882560;29;19959;-70
2022/05/11 09:48:02;;;;;;;;;;;;;;;26.05;37.49;96402.94;4887247;29;19959;-70
2022/05/11 09:50:28;;;;;;;;;;;;;;;26.15;36.96;96407.97;4891697;29;19993;-70
2022/05/11 09:52:57;;;;;;;;;;;;;;;26.21;38.12;96403.22;4895626;29;20381;-70
2022/05/11 09:55:25;;;;;;;;;;;;;;;26.35;37.58;96405.72;4888933;29;19964;-70
2022/05/11 09:57:56;;;;;;;;;;;;;;;26.32;35.28;96389.09;4891955;29;20365;-70
2022/05/11 10:00:26;;;;;;;;;;;;;;;26.40;36.61;96402.88;4892619;29;19953;-70
2022/05/11 10:02:55;;;;;;;;;;;;;;;26.53;37.08;96399.94;4893465;29;19965;-70
2022/05/11 10:05:26;;;;;;;;;;;;;;;26.69;36.60;96389.50;4893581;29;19959;-71
2022/05/11 10:08:12;;;;;;;;;;;;;;;26.83;36.22;96385.78;4896067;29;19967;-70
2022/05/11 10:10:42;;;;;;;;;;;;;;;26.89;35.63;96384.47;4883861;29;19965;-70
2022/05/11 10:13:28;;;;;;;;;;;;;;;26.86;34.33;96388.63;4891921;29;19968;-70
2022/05/11 10:22:00;;;;;;;;;;;;;;;27.04;35.18;96372.38;4891914;29;19988;-70
2022/05/11 10:24:44;;;;;;;;;;;;;;;27.03;34.37;96379.66;4894687;29;19959;-70
2022/05/11 10:27:16;;;;;;;;;;;;;;;27.03;34.23;96382.34;4896708;29;19958;-70
2022/05/11 10:29:58;;;;;;;;;;;;;;;27.17;34.88;96381.31;4890505;29;20321;-70
2022/05/11 10:32:47;;;;;;;;;;;;;;;27.29;34.03;96365.25;4885141;29;20330;-70
2022/05/11 10:35:12;;;;;;;;;;;;;;;27.38;33.95;96365.19;4886301;29;19963;-70
2022/05/11 10:37:54;;;;;;;;;;;;;;;27.44;33.64;96370.03;4891316;29;19975;-70
2022/05/11 10:40:32;;;;;;;;;;;;;;;27.52;33.05;96363.03;4890730;29;20367;-70
2022/05/11 10:43:01;;;;;;;;;;;;;;;27.57;32.33;96356.63;4895134;29;19960;-70
2022/05/11 10:45:34;;;;;;;;;;;;;;;27.63;33.89;96366.88;4891155;29;19957;-70
2022/05/11 10:48:05;;;;;;;;;;;;;;;27.68;32.50;96353.22;4895407;29;19966;-70
2022/05/11 10:50:40;;;;;;;;;;;;;;;27.69;32.50;96356.69;4891852;29;19964;-70
2022/05/11 10:53:19;;;;;;;;;;;;;;;27.78;32.85;96356.63;4878440;29;20417;-71
2022/05/11 10:55:51;;;;;;;;;;;;;;;27.80;32.24;96349.75;4890844;29;19955;-70
2022/05/11 10:58:29;;;;;;;;;;;;;;;27.77;32.01;96350.44;4891182;29;19982;-71
2022/05/11 11:01:09;;;;;;;;;;;;;;;27.76;32.99;96346.19;4894751;29;19957;-71
2022/05/11 11:03:58;;;;;;;;;;;;;;;27.86;33.59;96351.16;4894007;29;19963;-70
2022/05/11 11:07:13;;;;;;;;;;;;;;;27.94;31.37;96344.13;4869541;29;20410;-70
2022/05/11 11:09:55;;;;;;;;;;;;;;;28.04;33.00;96349.09;4825306;29;19963;-71
2022/05/11 11:12:31;;;;;;;;;;;;;;;28.22;31.87;96341.59;4883177;29;19961;-70
2022/05/11 11:14:58;;;;;;;;;;;;;;;28.29;30.88;96320.25;4888396;29;20327;-70
2022/05/11 11:17:26;;;;;;;;;;;;;;;28.49;32.40;96339.41;4887780;29;19977;-70
2022/05/11 11:19:55;;;;;;;;;;;;;;;28.64;30.47;96319.88;4870909;29;20463;-70
2022/05/11 11:22:21;;;;;;;;;;;;;;;28.77;30.77;96319.84;4891694;29;20000;-70
2022/05/11 11:25:06;;;;;;;;;;;;;;;28.89;31.49;96317.91;4888711;29;20007;-70
2022/05/11 11:27:51;;;;;;;;;;;;;;;28.95;30.34;96315.75;4891916;29;19960;-70
2022/05/11 11:30:20;;;;;;;;;;;;;;;28.92;30.24;96319.94;4895056;29;20326;-71
2022/05/11 11:33:05;;;;;;;;;;;;;;;28.87;30.37;96313.97;4890473;29;19958;-70
2022/05/11 11:35:34;;;;;;;;;;;;;;;29.01;30.52;96305.53;4892382;29;19958;-71
2022/05/11 11:38:01;;;;;;;;;;;;;;;29.19;29.99;96312.28;4891505;29;19999;-70
2022/05/11 11:40:28;;;;;;;;;;;;;;;29.32;30.97;96311.09;4885676;29;19955;-70
2022/05/11 11:42:54;;;;;;;;;;;;;;;29.40;27.70;96295.06;4895083;29;19958;-70
2022/05/11 11:45:26;;;;;;;;;;;;;;;29.41;29.66;96296.66;4890410;29;19972;-71
2022/05/11 11:48:10;;;;;;;;;;;;;;;29.46;29.38;96299.09;4890548;29;19967;-71
2022/05/11 11:50:50;;;;;;;;;;;;;;;29.50;27.62;96289.19;4891895;29;20330;-71
2022/05/11 11:53:22;;;;;;;;;;;;;;;29.55;27.99;96294.34;4883892;29;19958;-70
2022/05/11 11:55:48;;;;;;;;;;;;;;;29.43;26.19;96284.38;4889229;29;19968;-71
2022/05/11 11:58:25;;;;;;;;;;;;;;;29.37;27.35;96291.16;4889119;29;20469;-70
2022/05/11 12:01:19;;;;;;;;;;;;;;;29.42;27.80;96290.09;4895907;29;19967;-70
2022/05/11 12:03:55;;;;;;;;;;;;;;;29.45;26.91;96281.34;4889574;29;20411;-70
2022/05/11 12:17:29;;;;;;;;;;;;;;;29.76;26.40;96283.34;4886979;29;20430;-71
2022/05/11 12:19:59;;;;;;;;;;;;;;;29.87;25.20;96276.28;4890362;29;19956;-70
2022/05/11 12:22:26;;;;;;;;;;;;;;;29.91;25.38;96282.59;4888742;29;19968;-70
2022/05/11 12:25:00;;;;;;;;;;;;;;;29.95;26.17;96269.16;4888400;29;19965;-71
2022/05/11 12:27:27;;;;;;;;;;;;;;;29.92;25.29;96262.53;4885295;29;19955;-71
2022/05/11 12:29:56;;;;;;;;;;;;;;;29.75;24.26;96271.72;4888432;29;19976;-71
2022/05/11 12:32:25;;;;;;;;;;;;;;;29.78;25.35;96272.97;4890431;29;19968;-70
2022/05/11 12:34:51;;;;;;;;;;;;;;;29.93;25.82;96266.03;4895688;29;19960;-71
2022/05/11 12:37:23;;;;;;;;;;;;;;;30.09;24.84;96271.41;4886874;29;20387;-70
2022/05/11 12:39:56;;;;;;;;;;;;;;;30.15;26.14;96261.91;4889407;29;20447;-70
2022/05/11 12:42:45;;;;;;;;;;;;;;;30.13;25.17;96264.97;4887180;29;19968;-70
2022/05/11 12:45:17;;;;;;;;;;;;;;;29.97;23.87;96253.38;4857168;29;19964;-71
2022/05/11 12:47:48;;;;;;;;;;;;;;;29.98;26.10;96260.34;4889131;29;19973;-70
2022/05/11 12:50:34;;;;;;;;;;;;;;;30.00;25.78;96249.97;4890106;29;19962;-71
2022/05/11 12:53:22;;;;;;;;;;;;;;;29.90;23.56;96253.19;4891563;29;19984;-71
2022/05/11 12:55:50;;;;;;;;;;;;;;;29.89;24.68;96257.03;4888604;29;19956;-71
2022/05/11 12:58:23;;;;;;;;;;;;;;;29.84;24.48;96258.09;4891136;29;19966;-72
2022/05/11 13:00:57;;;;;;;;;;;;;;;29.79;24.81;96246.72;4886688;29;19955;-71
2022/05/11 13:03:23;;;;;;;;;;;;;;;29.68;24.60;96243.72;4883276;29;20024;-71
2022/05/11 13:06:27;;;;;;;;;;;;;;;29.74;23.65;96226.16;4882215;29;19954;-70
2022/05/11 13:08:56;;;;;;;;;;;;;;;29.86;24.80;96236.09;4887024;29;20406;-71
2022/05/11 13:11:24;;;;;;;;;;;;;;;29.87;23.83;96226.84;4886540;29;19967;-71
2022/05/11 13:13:55;;;;;;;;;;;;;;;29.75;21.95;96225.78;4889247;29;19957;-71
2022/05/11 13:16:32;;;;;;;;;;;;;;;29.66;23.84;96227.84;4889852;29;19960;-70
2022/05/11 13:19:16;;;;;;;;;;;;;;;29.72;24.67;96234.59;4887820;29;21295;-70
2022/05/11 13:21:45;;;;;;;;;;;;;;;29.83;23.68;96228.69;4879556;29;19985;-70
2022/05/11 13:24:11;;;;;;;;;;;;;;;29.86;23.01;96231.47;4879659;29;20312;-71
2022/05/11 13:26:45;;;;;;;;;;;;;;;29.89;23.89;96233.47;4880108;29;20011;-70
2022/05/11 13:29:20;;;;;;;;;;;;;;;29.85;23.89;96227.19;4879628;29;20344;-70
2022/05/11 13:31:59;;;;;;;;;;;;;;;29.66;22.90;96218.97;4879330;29;19966;-70
2022/05/11 13:34:43;;;;;;;;;;;;;;;29.53;23.71;96207.44;4879951;29;19960;-70
2022/05/11 13:37:24;;;;;;;;;;;;;;;29.58;24.02;96220.69;4872187;29;19964;-70
2022/05/11 13:39:50;;;;;;;;;;;;;;;29.55;24.04;96218.69;4879393;29;19957;-70
2022/05/11 13:42:20;;;;;;;;;;;;;;;29.57;24.59;96210.22;4879246;29;19968;-70